Time;durP1;ratioP1;P1;durP2;ratioP2;P2;SDS_P1;SDS_P2;PMS_P1;PMS_P2;Temp;Humidity;BMP_temperature;BMP_pressure;BME280_temperature;BME280_humidity;BME280_pressure;Samples;Min_cycle;Max_cycle;Signal;HPM_P1;HPM_P2
2022/12/06 00:01:40;;;;;;;;;;;5.40;99.90;;;;;;5101056;28;19949;-63
2022/12/06 00:04:07;;;;;;;;;;;5.30;99.90;;;;;;5087479;28;19971;-63
2022/12/06 00:06:36;;;;;;;;;;;5.40;99.90;;;;;;5111445;27;19920;-62
2022/12/06 00:09:01;;;;;;;;;;;5.40;99.90;;;;;;5086599;28;20316;-62
2022/12/06 00:11:32;;;;;;;;;;;5.40;99.90;;;;;;5090445;27;19946;-63
2022/12/06 00:14:01;;;;;;;;;;;5.30;99.90;;;;;;5106136;27;19924;-62
2022/12/06 00:16:27;;;;;;;;;;;5.40;99.90;;;;;;5130121;27;19955;-64
2022/12/06 00:18:53;;;;;;;;;;;5.30;99.90;;;;;;5097204;27;20512;-64
2022/12/06 00:21:20;;;;;;;;;;;5.40;99.90;;;;;;5092991;27;19924;-63
2022/12/06 00:23:47;;;;;;;;;;;5.40;99.90;;;;;;5097884;27;20015;-64
2022/12/06 00:26:13;;;;;;;;;;;5.40;99.90;;;;;;5089293;28;20022;-63
2022/12/06 00:28:39;;;;;;;;;;;5.40;99.90;;;;;;5129685;27;19919;-63
2022/12/06 00:31:06;;;;;;;;;;;5.40;99.90;;;;;;5128498;27;20369;-63
2022/12/06 00:33:33;;;;;;;;;;;5.40;99.90;;;;;;5096098;28;19927;-63
2022/12/06 00:36:06;;;;;;;;;;;5.30;99.90;;;;;;5100827;28;20092;-63
2022/12/06 00:38:33;;;;;;;;;;;5.40;99.90;;;;;;5134144;27;19920;-63
2022/12/06 00:41:09;;;;;;;;;;;5.40;99.90;;;;;;5099360;28;19924;-62
2022/12/06 00:43:35;;;;;;;;;;;5.30;99.90;;;;;;5092563;28;19924;-63
2022/12/06 00:46:01;;;;;;;;;;;5.40;99.90;;;;;;5092630;27;19927;-64
2022/12/06 00:48:27;;;;;;;;;;;5.40;99.90;;;;;;5096850;28;19920;-63
2022/12/06 00:50:52;;;;;;;;;;;5.40;99.90;;;;;;5097926;28;19928;-63
2022/12/06 00:53:18;;;;;;;;;;;5.30;99.90;;;;;;5098934;28;20289;-63
2022/12/06 00:55:43;;;;;;;;;;;5.30;99.90;;;;;;5094243;28;19923;-62
2022/12/06 00:58:09;;;;;;;;;;;5.20;99.90;;;;;;5098082;28;19928;-63
2022/12/06 01:00:35;;;;;;;;;;;5.30;99.90;;;;;;5093486;28;19969;-63
2022/12/06 01:03:00;;;;;;;;;;;5.30;99.90;;;;;;5102036;28;19919;-63
2022/12/06 01:05:26;;;;;;;;;;;5.30;99.90;;;;;;5133700;27;19924;-63
2022/12/06 01:07:51;;;;;;;;;;;5.20;99.90;;;;;;5095692;28;19927;-63
2022/12/06 01:10:17;;;;;;;;;;;5.30;99.90;;;;;;5098437;28;19930;-63
2022/12/06 01:12:43;;;;;;;;;;;5.30;99.90;;;;;;5075145;28;19927;-64
2022/12/06 01:15:08;;;;;;;;;;;5.40;99.90;;;;;;5099211;28;19928;-65
2022/12/06 01:17:34;;;;;;;;;;;5.30;99.90;;;;;;5081550;28;20402;-63
2022/12/06 01:20:00;;;;;;;;;;;5.40;99.90;;;;;;5097198;28;19928;-63
2022/12/06 01:22:25;;;;;;;;;;;5.40;99.90;;;;;;5097908;28;20450;-64
2022/12/06 01:24:51;;;;;;;;;;;5.30;99.90;;;;;;5100217;28;19965;-63
2022/12/06 01:27:16;;;;;;;;;;;5.40;99.90;;;;;;5117528;28;19924;-64
2022/12/06 01:29:42;;;;;;;;;;;5.40;99.90;;;;;;5079912;28;19927;-64
2022/12/06 01:32:07;;;;;;;;;;;5.30;99.90;;;;;;5076908;28;20035;-64
2022/12/06 01:34:33;;;;;;;;;;;5.30;99.90;;;;;;5080965;28;20022;-63
2022/12/06 01:36:58;;;;;;;;;;;5.40;99.90;;;;;;5079555;28;19920;-64
2022/12/06 01:39:24;;;;;;;;;;;5.20;99.90;;;;;;5080870;28;20190;-63
2022/12/06 01:41:49;;;;;;;;;;;5.40;99.90;;;;;;5099124;28;19923;-63
2022/12/06 01:44:34;;;;;;;;;;;5.30;99.90;;;;;;5081308;28;20014;-63
2022/12/06 01:46:59;;;;;;;;;;;5.30;99.90;;;;;;5091105;28;20425;-65
2022/12/06 01:49:28;;;;;;;;;;;5.40;99.90;;;;;;5076083;28;20097;-65
2022/12/06 01:51:56;;;;;;;;;;;5.40;99.90;;;;;;5115682;28;20386;-64
2022/12/06 01:54:22;;;;;;;;;;;5.20;99.90;;;;;;5097313;28;19932;-64
2022/12/06 01:56:49;;;;;;;;;;;5.20;99.90;;;;;;5094923;28;19927;-63
2022/12/06 01:59:15;;;;;;;;;;;5.30;99.90;;;;;;5079435;28;19931;-64
2022/12/06 02:01:40;;;;;;;;;;;5.20;99.90;;;;;;5094444;28;19920;-63
2022/12/06 02:04:07;;;;;;;;;;;5.30;99.90;;;;;;5078577;28;20065;-62
2022/12/06 02:06:32;;;;;;;;;;;5.30;99.90;;;;;;5098502;28;19919;-63
2022/12/06 02:08:59;;;;;;;;;;;5.20;99.90;;;;;;5092573;28;19930;-64
2022/12/06 02:11:24;;;;;;;;;;;5.20;99.90;;;;;;5102539;28;19931;-63
2022/12/06 02:13:50;;;;;;;;;;;5.10;99.90;;;;;;5102265;27;19920;-63
2022/12/06 02:16:23;;;;;;;;;;;5.10;99.90;;;;;;5103587;27;20310;-63
2022/12/06 02:18:53;;;;;;;;;;;5.10;99.90;;;;;;5101977;27;19920;-63
2022/12/06 02:21:24;;;;;;;;;;;5.00;99.90;;;;;;5098513;28;19924;-64
2022/12/06 02:24:08;;;;;;;;;;;5.00;99.90;;;;;;5102810;27;20210;-63
2022/12/06 02:26:40;;;;;;;;;;;5.00;99.90;;;;;;5099807;27;19926;-63
2022/12/06 02:29:25;;;;;;;;;;;5.00;99.90;;;;;;5104568;27;20390;-63
2022/12/06 02:31:55;;;;;;;;;;;5.00;99.90;;;;;;5101595;27;19927;-63
2022/12/06 02:34:24;;;;;;;;;;;4.90;99.90;;;;;;5107618;27;19931;-63
2022/12/06 02:36:54;;;;;;;;;;;5.00;99.90;;;;;;5097202;27;19924;-63
2022/12/06 02:39:25;;;;;;;;;;;4.90;99.90;;;;;;5134514;27;20014;-63
2022/12/06 02:41:55;;;;;;;;;;;5.00;99.90;;;;;;5099864;27;19970;-63
2022/12/06 02:44:30;;;;;;;;;;;4.90;99.90;;;;;;5103865;28;19926;-63
2022/12/06 02:46:56;;;;;;;;;;;5.00;99.90;;;;;;5097668;28;20323;-62
2022/12/06 02:49:23;;;;;;;;;;;4.90;99.90;;;;;;5103938;27;19964;-63
2022/12/06 02:51:50;;;;;;;;;;;5.00;99.90;;;;;;5102329;27;19920;-62
2022/12/06 02:54:16;;;;;;;;;;;4.90;99.90;;;;;;5107461;28;20018;-63
2022/12/06 02:56:41;;;;;;;;;;;5.00;99.90;;;;;;5115612;27;20458;-63
2022/12/06 02:59:07;;;;;;;;;;;5.00;99.90;;;;;;5104079;27;20366;-64
2022/12/06 03:01:36;;;;;;;;;;;5.00;99.90;;;;;;5100802;27;20007;-64
2022/12/06 03:04:04;;;;;;;;;;;5.00;99.90;;;;;;5104148;27;19988;-63
2022/12/06 03:06:32;;;;;;;;;;;5.00;99.90;;;;;;5098564;28;19924;-64
2022/12/06 03:09:01;;;;;;;;;;;5.00;99.90;;;;;;5098998;27;20006;-64
2022/12/06 03:11:32;;;;;;;;;;;5.00;99.90;;;;;;5131415;27;21294;-63
2022/12/06 03:14:02;;;;;;;;;;;5.00;99.90;;;;;;5101658;27;20425;-64
2022/12/06 03:16:31;;;;;;;;;;;4.90;99.90;;;;;;5098638;27;20007;-63
2022/12/06 03:19:02;;;;;;;;;;;4.90;99.90;;;;;;5133710;27;19928;-63
2022/12/06 03:22:03;;;;;;;;;;;5.00;99.90;;;;;;5099343;28;19951;-63
2022/12/06 03:24:30;;;;;;;;;;;4.90;99.90;;;;;;4992962;28;20024;-64
2022/12/06 03:26:57;;;;;;;;;;;5.00;99.90;;;;;;5080109;27;20400;-64
2022/12/06 03:29:25;;;;;;;;;;;4.90;99.90;;;;;;5098444;27;19931;-63
2022/12/06 03:31:51;;;;;;;;;;;4.80;99.90;;;;;;5100279;27;19919;-63
2022/12/06 03:34:21;;;;;;;;;;;4.90;99.90;;;;;;5104059;28;19928;-64
2022/12/06 03:36:48;;;;;;;;;;;4.90;99.90;;;;;;5104190;27;19935;-63
2022/12/06 03:39:15;;;;;;;;;;;4.80;99.90;;;;;;5103007;28;20010;-63
2022/12/06 03:42:01;;;;;;;;;;;4.90;99.90;;;;;;5099026;27;19924;-63
2022/12/06 03:44:27;;;;;;;;;;;4.80;99.90;;;;;;5101894;28;19924;-63
2022/12/06 03:47:02;;;;;;;;;;;4.80;99.90;;;;;;5119242;27;19931;-63
2022/12/06 03:49:34;;;;;;;;;;;4.80;99.90;;;;;;5095506;27;19928;-63
2022/12/06 03:51:59;;;;;;;;;;;4.70;99.90;;;;;;5091644;27;19975;-63
2022/12/06 03:54:25;;;;;;;;;;;4.70;99.90;;;;;;5102693;27;19967;-64
2022/12/06 03:56:50;;;;;;;;;;;4.70;99.90;;;;;;5096464;27;19977;-63
2022/12/06 03:59:16;;;;;;;;;;;4.70;99.90;;;;;;5101179;27;20393;-64
2022/12/06 04:01:41;;;;;;;;;;;4.70;99.90;;;;;;5102302;27;20374;-64
2022/12/06 04:04:08;;;;;;;;;;;4.70;99.90;;;;;;5102606;28;21366;-63
2022/12/06 04:06:34;;;;;;;;;;;4.70;99.90;;;;;;5131387;27;20351;-63
2022/12/06 04:11:44;;;;;;;;;;;4.60;99.90;;;;;;5079829;28;19927;-63
2022/12/06 04:14:09;;;;;;;;;;;4.60;99.90;;;;;;5098264;28;20073;-63
2022/12/06 04:19:19;;;;;;;;;;;4.50;99.90;;;;;;5084192;28;20315;-63
2022/12/06 04:24:29;;;;;;;;;;;4.40;99.90;;;;;;5117140;27;19931;-63
2022/12/06 04:28:40;;;;;;;;;;;4.40;99.90;;;;;;5084532;28;20376;-62
2022/12/06 04:40:40;;;;;;;;;;;4.60;99.90;;;;;;5080788;28;19927;-62
2022/12/06 04:45:51;;;;;;;;;;;4.50;99.90;;;;;;5077387;28;19927;-62
2022/12/06 04:48:16;;;;;;;;;;;4.40;99.90;;;;;;5113897;27;19924;-63
2022/12/06 04:50:45;;;;;;;;;;;4.40;99.90;;;;;;5081273;28;19927;-62
2022/12/06 04:53:11;;;;;;;;;;;4.40;99.90;;;;;;5103136;28;19926;-63
2022/12/06 04:55:36;;;;;;;;;;;4.30;99.90;;;;;;5101603;28;19928;-62
2022/12/06 04:58:02;;;;;;;;;;;4.40;99.90;;;;;;5077661;28;19923;-63
2022/12/06 05:00:27;;;;;;;;;;;4.40;99.90;;;;;;5079383;28;20035;-63
2022/12/06 05:02:53;;;;;;;;;;;4.30;99.90;;;;;;5099525;28;19928;-63
2022/12/06 05:05:18;;;;;;;;;;;4.40;99.90;;;;;;5082083;28;20006;-62
2022/12/06 05:07:44;;;;;;;;;;;4.20;99.90;;;;;;5065235;28;19920;-62
2022/12/06 05:10:09;;;;;;;;;;;4.30;99.90;;;;;;5096486;28;19924;-62
2022/12/06 05:12:35;;;;;;;;;;;4.10;99.90;;;;;;5095864;28;19923;-63
2022/12/06 05:15:00;;;;;;;;;;;4.20;99.90;;;;;;5098751;28;20020;-62
2022/12/06 05:17:26;;;;;;;;;;;4.10;99.90;;;;;;5095104;28;19927;-62
2022/12/06 05:19:51;;;;;;;;;;;3.90;99.90;;;;;;5129449;27;20333;-63
2022/12/06 05:22:17;;;;;;;;;;;4.00;99.90;;;;;;5104841;28;19920;-63
2022/12/06 05:24:42;;;;;;;;;;;3.90;99.90;;;;;;5093158;28;19959;-63
2022/12/06 05:27:08;;;;;;;;;;;3.90;99.90;;;;;;5099008;28;19923;-63
2022/12/06 05:29:33;;;;;;;;;;;3.80;99.90;;;;;;5098209;28;19980;-62
2022/12/06 05:31:59;;;;;;;;;;;3.70;99.90;;;;;;5099116;28;19988;-62
2022/12/06 05:34:27;;;;;;;;;;;3.80;99.90;;;;;;5099467;28;19928;-62
2022/12/06 05:36:53;;;;;;;;;;;3.70;99.90;;;;;;5097406;28;19924;-63
2022/12/06 05:39:18;;;;;;;;;;;3.70;99.90;;;;;;5102544;28;20431;-63
2022/12/06 05:41:44;;;;;;;;;;;3.70;99.90;;;;;;5098952;27;19959;-63
2022/12/06 05:44:11;;;;;;;;;;;3.80;99.90;;;;;;5117275;27;20297;-64
2022/12/06 05:46:36;;;;;;;;;;;3.80;99.90;;;;;;5135513;27;20306;-63
2022/12/06 05:49:02;;;;;;;;;;;3.90;99.90;;;;;;5137076;27;19919;-62
2022/12/06 05:51:27;;;;;;;;;;;3.90;99.90;;;;;;5098145;28;19954;-63
2022/12/06 05:53:53;;;;;;;;;;;4.00;99.90;;;;;;5114112;27;19924;-63
2022/12/06 05:56:18;;;;;;;;;;;4.00;99.90;;;;;;5103236;27;19924;-63
2022/12/06 05:58:44;;;;;;;;;;;4.10;99.90;;;;;;5103585;27;19928;-62
2022/12/06 06:01:09;;;;;;;;;;;4.10;99.90;;;;;;5105010;27;20010;-63
2022/12/06 06:03:35;;;;;;;;;;;4.10;99.90;;;;;;5136142;27;19935;-63
2022/12/06 06:06:01;;;;;;;;;;;4.20;99.90;;;;;;5109617;28;19920;-63
2022/12/06 06:08:27;;;;;;;;;;;4.10;99.90;;;;;;5103446;28;20290;-63
2022/12/06 06:10:53;;;;;;;;;;;4.10;99.90;;;;;;5117593;27;19973;-62
2022/12/06 06:13:19;;;;;;;;;;;4.10;99.90;;;;;;5097073;28;20441;-63
2022/12/06 06:15:44;;;;;;;;;;;4.10;99.90;;;;;;5111962;28;20214;-63
2022/12/06 06:18:10;;;;;;;;;;;4.20;99.90;;;;;;5107371;28;20018;-63
2022/12/06 06:20:35;;;;;;;;;;;4.10;99.90;;;;;;5096520;27;20023;-63
2022/12/06 06:23:01;;;;;;;;;;;4.20;99.90;;;;;;5095793;27;19963;-64
2022/12/06 06:25:26;;;;;;;;;;;4.20;99.90;;;;;;5104519;27;20430;-63
2022/12/06 06:27:52;;;;;;;;;;;4.20;99.90;;;;;;5093801;27;20384;-63
2022/12/06 06:30:17;;;;;;;;;;;4.10;99.90;;;;;;5101597;27;19919;-63
2022/12/06 06:32:43;;;;;;;;;;;4.00;99.90;;;;;;5131293;27;19924;-62
2022/12/06 06:35:08;;;;;;;;;;;3.80;99.90;;;;;;5099079;27;20305;-63
2022/12/06 06:37:34;;;;;;;;;;;3.90;99.90;;;;;;5132312;27;20395;-63
2022/12/06 06:40:00;;;;;;;;;;;3.80;99.90;;;;;;5101006;27;19920;-63
2022/12/06 06:42:25;;;;;;;;;;;3.80;99.90;;;;;;5099864;27;19926;-63
2022/12/06 06:44:53;;;;;;;;;;;3.70;99.90;;;;;;5102254;27;19928;-64
2022/12/06 06:47:19;;;;;;;;;;;3.60;99.90;;;;;;5109982;27;19924;-63
2022/12/06 06:49:45;;;;;;;;;;;3.70;99.90;;;;;;5100840;27;20295;-63
2022/12/06 06:52:11;;;;;;;;;;;3.70;99.90;;;;;;5092954;27;19927;-62
2022/12/06 06:54:36;;;;;;;;;;;3.50;99.90;;;;;;5104182;27;19932;-63
2022/12/06 06:57:02;;;;;;;;;;;3.60;99.90;;;;;;5098777;27;20417;-63
2022/12/06 06:59:28;;;;;;;;;;;3.50;99.90;;;;;;5130784;27;19920;-63
2022/12/06 07:01:53;;;;;;;;;;;3.50;99.90;;;;;;5098264;27;20409;-64
2022/12/06 07:04:19;;;;;;;;;;;3.30;99.90;;;;;;5106684;27;19924;-64
2022/12/06 07:06:44;;;;;;;;;;;3.30;99.90;;;;;;5106096;28;19935;-64
2022/12/06 07:09:10;;;;;;;;;;;3.30;99.90;;;;;;5138106;27;20298;-64
2022/12/06 07:11:36;;;;;;;;;;;3.20;99.90;;;;;;5104500;28;20382;-64
2022/12/06 07:14:01;;;;;;;;;;;3.10;99.90;;;;;;5139734;27;19920;-64
2022/12/06 07:16:27;;;;;;;;;;;3.00;99.90;;;;;;5109127;28;19920;-64
2022/12/06 07:18:52;;;;;;;;;;;2.90;99.90;;;;;;5108852;28;20002;-64
2022/12/06 07:21:18;;;;;;;;;;;2.90;99.90;;;;;;5104441;28;20267;-63
2022/12/06 07:23:44;;;;;;;;;;;2.90;99.90;;;;;;5094336;28;20022;-64
2022/12/06 07:26:13;;;;;;;;;;;2.90;99.90;;;;;;5110296;28;20368;-64
2022/12/06 07:28:40;;;;;;;;;;;2.80;99.90;;;;;;5109769;28;19965;-64
2022/12/06 07:31:11;;;;;;;;;;;2.70;99.90;;;;;;5111289;28;19920;-64
2022/12/06 07:33:37;;;;;;;;;;;2.90;99.90;;;;;;5106140;28;19927;-64
2022/12/06 07:36:03;;;;;;;;;;;2.80;99.90;;;;;;5110788;28;20358;-64
2022/12/06 07:38:29;;;;;;;;;;;2.70;99.90;;;;;;5100624;28;20374;-64
2022/12/06 07:40:59;;;;;;;;;;;2.50;99.90;;;;;;5127865;27;20298;-65
2022/12/06 07:46:10;;;;;;;;;;;2.40;99.90;;;;;;5109299;28;19926;-64
2022/12/06 07:48:35;;;;;;;;;;;2.40;99.90;;;;;;5096073;28;19974;-63
2022/12/06 07:51:03;;;;;;;;;;;2.30;99.90;;;;;;5098158;28;20390;-64
2022/12/06 07:53:28;;;;;;;;;;;2.40;99.90;;;;;;5107576;27;19930;-64
2022/12/06 07:55:54;;;;;;;;;;;2.40;99.90;;;;;;5098914;28;20353;-63
2022/12/06 07:58:19;;;;;;;;;;;2.50;99.90;;;;;;5101570;27;19928;-63
2022/12/06 08:00:45;;;;;;;;;;;2.60;99.90;;;;;;5097133;27;20417;-64
2022/12/06 08:03:11;;;;;;;;;;;2.70;99.90;;;;;;5099200;28;20003;-63
2022/12/06 08:05:36;;;;;;;;;;;2.60;99.90;;;;;;5110686;28;19920;-63
2022/12/06 08:08:02;;;;;;;;;;;2.70;99.90;;;;;;5098983;28;19920;-63
2022/12/06 08:10:27;;;;;;;;;;;2.80;99.90;;;;;;5079925;28;19926;-63
2022/12/06 08:12:52;;;;;;;;;;;2.70;99.90;;;;;;5082094;28;19920;-63
2022/12/06 08:15:18;;;;;;;;;;;2.70;99.90;;;;;;5086744;27;19923;-63
2022/12/06 08:17:44;;;;;;;;;;;2.70;99.90;;;;;;5080285;28;19923;-63
2022/12/06 08:20:09;;;;;;;;;;;2.70;99.90;;;;;;5081336;28;19971;-63
2022/12/06 08:22:35;;;;;;;;;;;2.80;99.90;;;;;;5106463;27;20394;-63
2022/12/06 08:25:00;;;;;;;;;;;2.90;99.90;;;;;;5096531;27;19959;-63
2022/12/06 08:27:26;;;;;;;;;;;2.80;99.90;;;;;;5085213;28;19984;-63
2022/12/06 08:29:51;;;;;;;;;;;2.90;99.90;;;;;;5092065;28;19920;-63
2022/12/06 08:32:17;;;;;;;;;;;3.00;99.90;;;;;;5106293;27;20822;-63
2022/12/06 08:34:42;;;;;;;;;;;3.10;99.90;;;;;;5109719;27;19927;-63
2022/12/06 08:37:08;;;;;;;;;;;3.00;99.90;;;;;;5076113;28;20366;-63
2022/12/06 08:39:34;;;;;;;;;;;3.10;99.90;;;;;;5086306;28;19968;-63
2022/12/06 08:42:01;;;;;;;;;;;3.00;99.90;;;;;;5085910;28;20332;-64
2022/12/06 08:44:28;;;;;;;;;;;3.00;99.90;;;;;;5076907;28;19924;-64
2022/12/06 08:46:54;;;;;;;;;;;3.10;99.90;;;;;;5066233;27;19920;-63
2022/12/06 08:49:21;;;;;;;;;;;3.10;99.90;;;;;;5113634;27;19920;-63
2022/12/06 08:51:47;;;;;;;;;;;3.10;99.90;;;;;;5124857;27;20370;-63
2022/12/06 08:54:14;;;;;;;;;;;3.20;99.90;;;;;;5090966;28;19924;-64
2022/12/06 08:56:40;;;;;;;;;;;3.20;99.90;;;;;;5074379;28;19924;-63
2022/12/06 08:59:05;;;;;;;;;;;3.20;99.90;;;;;;5091328;28;19927;-64
2022/12/06 09:01:32;;;;;;;;;;;3.20;99.90;;;;;;5103829;28;19997;-64
2022/12/06 09:03:58;;;;;;;;;;;3.30;99.90;;;;;;5090998;28;19923;-63
2022/12/06 09:06:24;;;;;;;;;;;3.10;99.90;;;;;;5107442;28;19964;-64
2022/12/06 09:08:50;;;;;;;;;;;3.20;99.90;;;;;;5080173;28;20377;-64
2022/12/06 09:11:16;;;;;;;;;;;3.30;99.90;;;;;;5090575;28;19985;-64
2022/12/06 09:13:41;;;;;;;;;;;3.30;99.90;;;;;;5131317;27;19924;-63
2022/12/06 09:16:09;;;;;;;;;;;3.50;99.90;;;;;;5099284;28;19986;-64
2022/12/06 09:18:35;;;;;;;;;;;3.60;99.90;;;;;;5099426;28;19924;-63
2022/12/06 09:21:04;;;;;;;;;;;3.60;99.90;;;;;;5129071;27;19965;-63
2022/12/06 09:23:30;;;;;;;;;;;3.70;99.90;;;;;;5102490;27;19966;-64
2022/12/06 09:25:55;;;;;;;;;;;3.80;99.90;;;;;;5113301;28;19923;-64
2022/12/06 09:28:21;;;;;;;;;;;3.80;99.90;;;;;;5085207;28;19920;-64
2022/12/06 09:30:46;;;;;;;;;;;3.90;99.90;;;;;;5092990;28;19928;-64
2022/12/06 09:33:12;;;;;;;;;;;4.00;99.90;;;;;;5094121;28;19945;-64
2022/12/06 09:35:37;;;;;;;;;;;4.10;99.90;;;;;;5132119;27;20336;-64
2022/12/06 09:38:03;;;;;;;;;;;4.10;99.90;;;;;;5105845;28;19963;-65
2022/12/06 09:40:33;;;;;;;;;;;4.20;99.90;;;;;;5114390;28;19920;-65
2022/12/06 09:43:18;;;;;;;;;;;4.30;99.90;;;;;;5104068;28;19920;-65
2022/12/06 09:45:43;;;;;;;;;;;4.30;99.90;;;;;;5094460;28;19923;-65
2022/12/06 09:48:21;;;;;;;;;;;4.40;99.90;;;;;;5094564;28;20279;-65
2022/12/06 09:51:05;;;;;;;;;;;4.60;99.90;;;;;;5103874;28;19928;-65
2022/12/06 09:53:40;;;;;;;;;;;4.70;99.90;;;;;;5107287;28;19919;-65
2022/12/06 09:56:10;;;;;;;;;;;4.80;99.90;;;;;;5112107;28;19924;-66
2022/12/06 09:58:39;;;;;;;;;;;4.80;99.90;;;;;;5100510;28;19979;-65
2022/12/06 10:01:19;;;;;;;;;;;4.80;99.90;;;;;;5095750;27;19920;-64
2022/12/06 10:03:52;;;;;;;;;;;4.80;99.90;;;;;;5109623;28;19920;-65
2022/12/06 10:06:20;;;;;;;;;;;4.90;99.90;;;;;;5089114;28;19942;-64
2022/12/06 10:08:54;;;;;;;;;;;4.90;99.90;;;;;;5098204;28;19927;-64
2022/12/06 10:11:36;;;;;;;;;;;4.90;99.90;;;;;;5102275;28;20424;-64
2022/12/06 10:14:11;;;;;;;;;;;4.90;99.90;;;;;;5102057;28;20007;-64
2022/12/06 10:16:43;;;;;;;;;;;4.90;99.90;;;;;;5113978;28;19931;-64
2022/12/06 10:19:09;;;;;;;;;;;4.90;99.90;;;;;;5108584;28;20370;-65
2022/12/06 10:21:40;;;;;;;;;;;4.90;99.90;;;;;;5096559;28;19974;-64
2022/12/06 10:24:09;;;;;;;;;;;5.00;99.90;;;;;;5093274;28;20007;-65
2022/12/06 10:26:48;;;;;;;;;;;5.00;99.90;;;;;;5112493;27;20374;-66
2022/12/06 10:29:31;;;;;;;;;;;5.00;99.90;;;;;;5096744;28;19923;-65
2022/12/06 10:32:15;;;;;;;;;;;5.10;99.90;;;;;;5106774;28;20420;-65
2022/12/06 10:34:46;;;;;;;;;;;5.20;99.90;;;;;;5093450;28;19924;-65
2022/12/06 10:37:19;;;;;;;;;;;5.10;99.90;;;;;;5102328;28;19920;-65
2022/12/06 10:39:50;;;;;;;;;;;5.20;99.90;;;;;;5102001;28;20397;-65
2022/12/06 10:42:23;;;;;;;;;;;5.20;99.90;;;;;;5103602;28;20267;-65
2022/12/06 10:47:02;;;;;;;;;;;5.20;99.90;;;;;;5110949;28;19920;-65
2022/12/06 10:47:57;;;;;;;;;;;5.30;99.90;;;;;;5102564;28;19973;-65
2022/12/06 10:50:26;;;;;;;;;;;5.40;99.90;;;;;;5099026;28;19933;-66
2022/12/06 10:52:58;;;;;;;;;;;5.40;99.90;;;;;;5101005;28;19920;-65
2022/12/06 10:55:24;;;;;;;;;;;5.50;99.90;;;;;;5104415;28;19924;-66
2022/12/06 10:57:55;;;;;;;;;;;5.60;99.90;;;;;;5110465;28;19927;-65
2022/12/06 11:00:22;;;;;;;;;;;5.70;99.90;;;;;;5112561;28;19920;-65
2022/12/06 11:02:59;;;;;;;;;;;5.80;99.90;;;;;;5091134;28;19920;-66
2022/12/06 11:05:25;;;;;;;;;;;5.90;99.90;;;;;;5104609;28;20362;-65
2022/12/06 11:07:53;;;;;;;;;;;6.00;99.90;;;;;;5100870;28;19927;-64
2022/12/06 11:10:21;;;;;;;;;;;6.00;99.90;;;;;;5076280;28;20016;-65
2022/12/06 11:12:47;;;;;;;;;;;6.00;99.90;;;;;;5111752;28;19924;-65
2022/12/06 11:15:16;;;;;;;;;;;5.90;99.90;;;;;;5119981;27;19973;-65
2022/12/06 11:17:44;;;;;;;;;;;5.80;99.90;;;;;;5089627;28;20390;-65
2022/12/06 11:20:30;;;;;;;;;;;5.80;99.90;;;;;;5104167;28;19934;-66
2022/12/06 11:23:14;;;;;;;;;;;5.80;99.90;;;;;;5045456;28;20044;-65
2022/12/06 11:25:58;;;;;;;;;;;6.00;99.90;;;;;;5087731;28;19923;-65
2022/12/06 11:28:23;;;;;;;;;;;6.10;99.90;;;;;;5085945;28;19927;-65
2022/12/06 11:30:53;;;;;;;;;;;6.20;99.90;;;;;;5110361;28;19924;-65
2022/12/06 11:33:20;;;;;;;;;;;6.30;99.90;;;;;;5086666;28;20030;-66
2022/12/06 11:35:46;;;;;;;;;;;6.30;99.90;;;;;;5124909;27;19930;-66
2022/12/06 11:38:13;;;;;;;;;;;6.30;99.90;;;;;;5087894;28;19926;-65
2022/12/06 11:40:43;;;;;;;;;;;6.30;99.90;;;;;;5117284;27;19928;-65
2022/12/06 11:43:14;;;;;;;;;;;6.30;99.90;;;;;;5090257;28;20432;-66
2022/12/06 11:45:42;;;;;;;;;;;6.30;99.90;;;;;;5086947;28;20405;-66
2022/12/06 11:48:24;;;;;;;;;;;6.30;99.90;;;;;;5090112;28;20018;-65
2022/12/06 11:50:51;;;;;;;;;;;6.30;99.90;;;;;;5087151;28;19919;-66
2022/12/06 11:53:35;;;;;;;;;;;6.30;99.90;;;;;;5085909;28;19931;-65
2022/12/06 11:56:21;;;;;;;;;;;6.40;99.90;;;;;;5082931;28;19930;-65
2022/12/06 11:59:05;;;;;;;;;;;6.40;99.90;;;;;;5092307;28;20343;-66
2022/12/06 12:01:43;;;;;;;;;;;6.40;99.90;;;;;;5120263;27;19922;-65
2022/12/06 12:04:27;;;;;;;;;;;6.40;99.90;;;;;;5108065;28;20366;-64
2022/12/06 12:06:56;;;;;;;;;;;6.40;99.90;;;;;;5107232;28;19920;-64
2022/12/06 12:09:23;;;;;;;;;;;6.40;99.90;;;;;;5107377;28;19927;-64
2022/12/06 12:12:01;;;;;;;;;;;6.50;99.90;;;;;;5106644;28;19927;-65
2022/12/06 12:14:30;;;;;;;;;;;6.50;99.90;;;;;;5139362;27;19989;-65
2022/12/06 12:17:00;;;;;;;;;;;6.60;99.90;;;;;;5100588;28;19935;-65
2022/12/06 12:19:35;;;;;;;;;;;6.60;99.90;;;;;;5124373;28;19931;-65
2022/12/06 12:22:12;;;;;;;;;;;6.70;99.90;;;;;;5110220;28;19924;-65
2022/12/06 12:24:41;;;;;;;;;;;6.70;99.90;;;;;;5088834;28;19927;-65
2022/12/06 12:27:25;;;;;;;;;;;6.70;99.90;;;;;;5137477;27;19939;-65
2022/12/06 12:30:09;;;;;;;;;;;6.70;99.90;;;;;;5107195;28;19924;-65
2022/12/06 12:32:35;;;;;;;;;;;6.80;99.90;;;;;;5097981;28;19926;-66
2022/12/06 12:35:16;;;;;;;;;;;6.70;99.90;;;;;;5096609;28;19924;-65
2022/12/06 12:37:42;;;;;;;;;;;6.70;99.90;;;;;;5098020;28;19924;-65
2022/12/06 12:40:20;;;;;;;;;;;6.70;99.90;;;;;;5105374;28;20023;-64
2022/12/06 12:42:45;;;;;;;;;;;6.70;99.90;;;;;;5100841;28;19955;-64
2022/12/06 12:45:16;;;;;;;;;;;6.70;99.90;;;;;;5105117;28;19958;-65
2022/12/06 12:47:54;;;;;;;;;;;6.70;99.90;;;;;;5082718;28;20453;-64
2022/12/06 12:50:22;;;;;;;;;;;6.80;99.90;;;;;;5099016;28;19923;-65
2022/12/06 12:52:48;;;;;;;;;;;6.80;99.90;;;;;;5093995;28;19920;-65
2022/12/06 12:55:19;;;;;;;;;;;6.80;99.90;;;;;;5105721;28;19927;-65
2022/12/06 12:57:55;;;;;;;;;;;6.80;99.90;;;;;;5135751;27;20386;-64
2022/12/06 13:00:20;;;;;;;;;;;6.80;99.90;;;;;;5095078;28;19935;-64
2022/12/06 13:02:55;;;;;;;;;;;6.90;99.90;;;;;;5102156;28;19942;-64
2022/12/06 13:05:26;;;;;;;;;;;7.00;99.90;;;;;;5132474;27;19924;-65
2022/12/06 13:07:54;;;;;;;;;;;7.00;99.90;;;;;;5100848;28;19926;-64
2022/12/06 13:10:23;;;;;;;;;;;7.00;99.90;;;;;;5105833;28;19924;-65
2022/12/06 13:12:57;;;;;;;;;;;7.00;99.90;;;;;;5092944;28;19975;-65
2022/12/06 13:15:27;;;;;;;;;;;7.00;99.90;;;;;;5126533;27;19971;-65
2022/12/06 13:17:55;;;;;;;;;;;7.00;99.90;;;;;;5085643;28;20061;-65
2022/12/06 13:20:21;;;;;;;;;;;6.90;99.90;;;;;;5128082;27;19947;-64
2022/12/06 13:22:48;;;;;;;;;;;6.90;99.90;;;;;;5092323;28;20751;-66
2022/12/06 13:25:13;;;;;;;;;;;6.90;99.90;;;;;;5087786;28;19920;-65
2022/12/06 13:27:41;;;;;;;;;;;6.90;99.90;;;;;;5092996;28;19988;-64
2022/12/06 13:30:14;;;;;;;;;;;6.90;99.90;;;;;;5089439;28;19928;-65
2022/12/06 13:32:45;;;;;;;;;;;6.90;99.90;;;;;;5083180;28;19921;-65
2022/12/06 13:35:11;;;;;;;;;;;7.00;99.90;;;;;;5091987;28;19924;-64
2022/12/06 13:37:42;;;;;;;;;;;7.00;99.90;;;;;;5087848;28;19931;-65
2022/12/06 13:40:27;;;;;;;;;;;7.00;99.90;;;;;;5092973;28;20426;-65
2022/12/06 13:42:53;;;;;;;;;;;7.00;99.90;;;;;;5117081;27;19927;-64
2022/12/06 13:45:39;;;;;;;;;;;7.00;99.90;;;;;;5098438;28;20363;-65
2022/12/06 13:48:25;;;;;;;;;;;7.00;99.90;;;;;;5114582;27;19920;-65
2022/12/06 13:50:51;;;;;;;;;;;7.00;99.90;;;;;;5113493;27;19971;-65
2022/12/06 13:53:16;;;;;;;;;;;7.00;99.90;;;;;;5085043;28;19986;-65
2022/12/06 13:55:53;;;;;;;;;;;7.00;99.90;;;;;;5086678;28;19920;-65
2022/12/06 13:58:18;;;;;;;;;;;7.00;99.90;;;;;;5106674;27;19927;-65
2022/12/06 14:00:48;;;;;;;;;;;6.90;99.90;;;;;;5083034;28;19920;-65
2022/12/06 14:03:16;;;;;;;;;;;6.90;99.90;;;;;;5085345;28;19920;-64
2022/12/06 14:05:55;;;;;;;;;;;6.90;99.90;;;;;;5063521;28;20289;-65
2022/12/06 14:08:22;;;;;;;;;;;6.90;99.90;;;;;;5088884;28;20026;-65
2022/12/06 14:10:47;;;;;;;;;;;6.90;99.90;;;;;;5105070;28;19927;-64
2022/12/06 14:13:20;;;;;;;;;;;6.90;99.90;;;;;;5085018;28;19920;-64
2022/12/06 14:15:46;;;;;;;;;;;6.80;99.90;;;;;;5078334;28;19930;-64
2022/12/06 14:18:20;;;;;;;;;;;6.80;99.90;;;;;;5111609;27;19924;-65
2022/12/06 14:20:46;;;;;;;;;;;6.80;99.90;;;;;;5064808;28;20014;-65
2022/12/06 14:23:23;;;;;;;;;;;6.80;99.90;;;;;;5087225;28;20326;-64
2022/12/06 14:25:48;;;;;;;;;;;6.80;99.90;;;;;;5082801;28;19969;-65
2022/12/06 14:28:14;;;;;;;;;;;6.80;99.90;;;;;;5072126;28;19920;-65
2022/12/06 14:30:39;;;;;;;;;;;6.80;99.90;;;;;;5085905;28;20416;-65
2022/12/06 14:33:25;;;;;;;;;;;6.80;99.90;;;;;;5068788;28;19924;-65
2022/12/06 14:35:51;;;;;;;;;;;6.80;99.90;;;;;;5045791;28;19935;-65
2022/12/06 14:38:21;;;;;;;;;;;6.80;99.90;;;;;;5108747;27;19930;-65
2022/12/06 14:43:32;;;;;;;;;;;6.70;99.90;;;;;;5069174;28;20002;-66
2022/12/06 14:45:58;;;;;;;;;;;6.70;99.90;;;;;;5107750;28;19926;-65
2022/12/06 14:48:24;;;;;;;;;;;6.70;99.90;;;;;;5073988;28;19920;-65
2022/12/06 14:50:50;;;;;;;;;;;6.70;99.90;;;;;;5089717;28;19924;-65
2022/12/06 14:53:28;;;;;;;;;;;6.60;99.90;;;;;;5097447;28;20329;-65
2022/12/06 14:55:58;;;;;;;;;;;6.60;99.90;;;;;;5072945;28;19924;-65
2022/12/06 14:58:31;;;;;;;;;;;6.60;99.90;;;;;;5086801;28;19924;-65
2022/12/06 15:01:00;;;;;;;;;;;6.60;99.90;;;;;;5084483;28;19920;-66
2022/12/06 15:03:27;;;;;;;;;;;6.50;99.90;;;;;;5097162;28;19924;-65
2022/12/06 15:06:10;;;;;;;;;;;6.50;99.90;;;;;;5089782;28;19934;-65
2022/12/06 15:08:36;;;;;;;;;;;6.40;99.90;;;;;;5091718;28;19923;-64